sensor_id;sensor_type;location;lat;lon;timestamp;pressure;altitude;pressure_sealevel;temperature;humidity
64402;BME280;50724;42.376;23.768;2023-04-06T00:00:10;92771.34;;;-2.10;85.75
64402;BME280;50724;42.376;23.768;2023-04-06T00:03:11;92766.94;;;-2.08;85.05
64402;BME280;50724;42.376;23.768;2023-04-06T00:06:11;92765.81;;;-2.03;85.28
64402;BME280;50724;42.376;23.768;2023-04-06T00:09:12;92749.91;;;-2.09;85.36
64402;BME280;50724;42.376;23.768;2023-04-06T00:12:12;92750.03;;;-2.10;85.26
64402;BME280;50724;42.376;23.768;2023-04-06T00:15:13;92754.31;;;-2.11;85.01
64402;BME280;50724;42.376;23.768;2023-04-06T00:18:13;92749.13;;;-2.09;84.83
64402;BME280;50724;42.376;23.768;2023-04-06T00:21:14;92742.03;;;-2.05;84.66
64402;BME280;50724;42.376;23.768;2023-04-06T00:24:15;92731.50;;;-2.14;84.46
64402;BME280;50724;42.376;23.768;2023-04-06T00:27:15;92732.72;;;-2.06;84.00
64402;BME280;50724;42.376;23.768;2023-04-06T00:30:16;92724.28;;;-2.09;83.89
64402;BME280;50724;42.376;23.768;2023-04-06T00:33:16;92714.47;;;-2.15;83.99
64402;BME280;50724;42.376;23.768;2023-04-06T00:36:17;92722.03;;;-2.13;83.97
64402;BME280;50724;42.376;23.768;2023-04-06T00:39:17;92712.22;;;-2.19;84.03
64402;BME280;50724;42.376;23.768;2023-04-06T00:42:18;92712.31;;;-2.21;84.20
64402;BME280;50724;42.376;23.768;2023-04-06T00:45:25;92706.19;;;-2.18;84.08
64402;BME280;50724;42.376;23.768;2023-04-06T00:48:25;92711.91;;;-2.15;83.67
64402;BME280;50724;42.376;23.768;2023-04-06T00:51:26;92700.25;;;-2.19;83.75
64402;BME280;50724;42.376;23.768;2023-04-06T00:54:28;92705.75;;;-2.12;83.55
64402;BME280;50724;42.376;23.768;2023-04-06T00:57:29;92705.56;;;-2.22;83.67
64402;BME280;50724;42.376;23.768;2023-04-06T01:00:32;92704.00;;;-2.24;84.15
64402;BME280;50724;42.376;23.768;2023-04-06T01:03:32;92704.94;;;-2.25;83.89
64402;BME280;50724;42.376;23.768;2023-04-06T01:06:32;92703.41;;;-2.15;83.58
64402;BME280;50724;42.376;23.768;2023-04-06T01:09:33;92701.44;;;-2.24;83.89
64402;BME280;50724;42.376;23.768;2023-04-06T01:12:33;92695.72;;;-2.28;84.02
64402;BME280;50724;42.376;23.768;2023-04-06T01:15:35;92700.63;;;-2.37;84.18
64402;BME280;50724;42.376;23.768;2023-04-06T01:18:37;92700.84;;;-2.28;84.29
64402;BME280;50724;42.376;23.768;2023-04-06T01:21:38;92701.34;;;-2.23;83.55
64402;BME280;50724;42.376;23.768;2023-04-06T01:24:39;92699.72;;;-2.24;84.01
64402;BME280;50724;42.376;23.768;2023-04-06T01:27:40;92691.63;;;-2.30;83.75
64402;BME280;50724;42.376;23.768;2023-04-06T01:30:43;92699.28;;;-2.18;83.76
64402;BME280;50724;42.376;23.768;2023-04-06T01:33:43;92700.09;;;-2.30;83.90
64402;BME280;50724;42.376;23.768;2023-04-06T01:36:44;92689.28;;;-2.21;83.64
64402;BME280;50724;42.376;23.768;2023-04-06T01:39:44;92688.56;;;-2.10;83.42
64402;BME280;50724;42.376;23.768;2023-04-06T01:42:45;92693.38;;;-2.05;83.64
64402;BME280;50724;42.376;23.768;2023-04-06T01:45:45;92690.72;;;-2.04;83.10
64402;BME280;50724;42.376;23.768;2023-04-06T01:48:46;92696.44;;;-2.13;83.55
64402;BME280;50724;42.376;23.768;2023-04-06T01:51:46;92683.94;;;-2.05;83.40
64402;BME280;50724;42.376;23.768;2023-04-06T01:54:47;92673.81;;;-2.06;83.42
64402;BME280;50724;42.376;23.768;2023-04-06T01:57:47;92670.50;;;-2.09;83.42
64402;BME280;50724;42.376;23.768;2023-04-06T02:00:48;92670.22;;;-2.04;83.47
64402;BME280;50724;42.376;23.768;2023-04-06T02:03:48;92674.00;;;-2.10;83.53
64402;BME280;50724;42.376;23.768;2023-04-06T02:06:48;92670.31;;;-2.05;83.35
64402;BME280;50724;42.376;23.768;2023-04-06T02:09:53;92673.06;;;-2.09;83.65
64402;BME280;50724;42.376;23.768;2023-04-06T02:12:54;92673.91;;;-2.08;83.76
64402;BME280;50724;42.376;23.768;2023-04-06T02:15:54;92670.50;;;-2.09;83.66
64402;BME280;50724;42.376;23.768;2023-04-06T02:18:55;92662.94;;;-2.10;83.80
64402;BME280;50724;42.376;23.768;2023-04-06T02:21:55;92659.47;;;-2.09;83.63
64402;BME280;50724;42.376;23.768;2023-04-06T02:24:56;92661.78;;;-2.06;84.04
64402;BME280;50724;42.376;23.768;2023-04-06T02:27:56;92669.72;;;-2.09;83.78
64402;BME280;50724;42.376;23.768;2023-04-06T02:30:57;92662.22;;;-2.12;84.14
64402;BME280;50724;42.376;23.768;2023-04-06T02:33:57;92656.47;;;-2.03;83.95
64402;BME280;50724;42.376;23.768;2023-04-06T02:36:57;92653.41;;;-1.95;83.47
64402;BME280;50724;42.376;23.768;2023-04-06T02:39:58;92654.44;;;-1.98;83.36
64402;BME280;50724;42.376;23.768;2023-04-06T02:42:58;92663.22;;;-1.89;83.25
64402;BME280;50724;42.376;23.768;2023-04-06T02:45:59;92659.34;;;-1.95;84.06
64402;BME280;50724;42.376;23.768;2023-04-06T02:48:59;92670.09;;;-1.90;84.28
64402;BME280;50724;42.376;23.768;2023-04-06T02:52:00;92670.59;;;-1.85;83.52
64402;BME280;50724;42.376;23.768;2023-04-06T02:55:01;92670.28;;;-1.80;83.60
64402;BME280;50724;42.376;23.768;2023-04-06T02:58:01;92662.38;;;-1.77;83.52
64402;BME280;50724;42.376;23.768;2023-04-06T03:01:01;92663.34;;;-1.78;83.12
64402;BME280;50724;42.376;23.768;2023-04-06T03:04:02;92650.50;;;-1.78;82.94
64402;BME280;50724;42.376;23.768;2023-04-06T03:07:03;92662.47;;;-1.66;82.23
64402;BME280;50724;42.376;23.768;2023-04-06T03:10:04;92665.84;;;-1.66;82.37
64402;BME280;50724;42.376;23.768;2023-04-06T03:13:05;92667.38;;;-1.63;82.40
64402;BME280;50724;42.376;23.768;2023-04-06T03:16:05;92666.03;;;-1.56;81.49
64402;BME280;50724;42.376;23.768;2023-04-06T03:19:06;92667.38;;;-1.51;81.82
64402;BME280;50724;42.376;23.768;2023-04-06T03:22:06;92665.06;;;-1.43;80.60
64402;BME280;50724;42.376;23.768;2023-04-06T03:25:07;92665.50;;;-1.36;80.64
64402;BME280;50724;42.376;23.768;2023-04-06T03:28:07;92658.53;;;-1.47;81.03
64402;BME280;50724;42.376;23.768;2023-04-06T03:31:08;92659.75;;;-1.40;80.96
64402;BME280;50724;42.376;23.768;2023-04-06T03:34:08;92654.03;;;-1.43;80.94
64402;BME280;50724;42.376;23.768;2023-04-06T03:37:09;92662.63;;;-1.44;80.88
64402;BME280;50724;42.376;23.768;2023-04-06T03:40:17;92658.41;;;-1.45;80.91
64402;BME280;50724;42.376;23.768;2023-04-06T03:43:18;92654.03;;;-1.56;81.12
64402;BME280;50724;42.376;23.768;2023-04-06T03:46:18;92660.19;;;-1.58;81.23
64402;BME280;50724;42.376;23.768;2023-04-06T03:49:19;92666.53;;;-1.51;80.93
64402;BME280;50724;42.376;23.768;2023-04-06T03:52:19;92657.94;;;-1.50;80.71
64402;BME280;50724;42.376;23.768;2023-04-06T03:55:20;92654.44;;;-1.49;80.71
64402;BME280;50724;42.376;23.768;2023-04-06T03:58:21;92651.88;;;-1.49;80.77
64402;BME280;50724;42.376;23.768;2023-04-06T04:01:21;92644.47;;;-1.41;80.76
64402;BME280;50724;42.376;23.768;2023-04-06T04:04:21;92656.88;;;-1.48;80.72
64402;BME280;50724;42.376;23.768;2023-04-06T04:07:22;92658.53;;;-1.47;80.66
64402;BME280;50724;42.376;23.768;2023-04-06T04:10:22;92653.06;;;-1.42;80.12
64402;BME280;50724;42.376;23.768;2023-04-06T04:13:23;92656.34;;;-1.40;80.39
64402;BME280;50724;42.376;23.768;2023-04-06T04:16:23;92657.69;;;-1.34;80.31
64402;BME280;50724;42.376;23.768;2023-04-06T04:19:24;92663.06;;;-1.26;80.38
64402;BME280;50724;42.376;23.768;2023-04-06T04:22:24;92661.66;;;-1.30;79.94
64402;BME280;50724;42.376;23.768;2023-04-06T04:25:24;92660.69;;;-1.17;79.83
64402;BME280;50724;42.376;23.768;2023-04-06T04:28:25;92664.72;;;-0.78;78.61
64402;BME280;50724;42.376;23.768;2023-04-06T04:31:25;92669.25;;;-0.47;77.33
64402;BME280;50724;42.376;23.768;2023-04-06T04:34:35;92670.78;;;0.35;74.06
64402;BME280;50724;42.376;23.768;2023-04-06T04:37:36;92670.13;;;0.98;70.51
64402;BME280;50724;42.376;23.768;2023-04-06T04:40:36;92672.13;;;1.69;67.28
64402;BME280;50724;42.376;23.768;2023-04-06T04:43:37;92666.72;;;3.42;62.33
64402;BME280;50724;42.376;23.768;2023-04-06T04:46:38;92673.78;;;2.81;61.67
64402;BME280;50724;42.376;23.768;2023-04-06T04:49:39;92680.34;;;2.95;61.18
64402;BME280;50724;42.376;23.768;2023-04-06T04:52:40;92689.47;;;4.52;57.62
64402;BME280;50724;42.376;23.768;2023-04-06T04:55:40;92675.91;;;5.04;53.47
64402;BME280;50724;42.376;23.768;2023-04-06T04:58:44;92680.03;;;5.24;53.88
64402;BME280;50724;42.376;23.768;2023-04-06T05:01:44;92681.31;;;4.47;53.70
64402;BME280;50724;42.376;23.768;2023-04-06T05:04:45;92687.84;;;2.37;61.61
64402;BME280;50724;42.376;23.768;2023-04-06T05:07:45;92686.75;;;1.89;64.48
64402;BME280;50724;42.376;23.768;2023-04-06T05:10:46;92684.16;;;1.36;66.40
64402;BME280;50724;42.376;23.768;2023-04-06T05:13:48;92683.75;;;1.20;67.55
64402;BME280;50724;42.376;23.768;2023-04-06T05:16:48;92684.22;;;1.25;67.76
64402;BME280;50724;42.376;23.768;2023-04-06T05:19:49;92680.25;;;1.10;68.48
64402;BME280;50724;42.376;23.768;2023-04-06T05:22:49;92680.34;;;0.77;69.08
64402;BME280;50724;42.376;23.768;2023-04-06T05:25:50;92685.28;;;0.58;70.50
64402;BME280;50724;42.376;23.768;2023-04-06T05:28:51;92685.59;;;0.76;70.30
64402;BME280;50724;42.376;23.768;2023-04-06T05:31:51;92684.22;;;0.49;71.00
64402;BME280;50724;42.376;23.768;2023-04-06T05:34:52;92684.81;;;0.42;71.25
64402;BME280;50724;42.376;23.768;2023-04-06T05:37:52;92675.09;;;0.56;70.96
64402;BME280;50724;42.376;23.768;2023-04-06T05:40:53;92682.00;;;0.45;70.83
64402;BME280;50724;42.376;23.768;2023-04-06T05:43:53;92678.03;;;0.41;71.52
64402;BME280;50724;42.376;23.768;2023-04-06T05:46:54;92675.91;;;0.68;70.88
64402;BME280;50724;42.376;23.768;2023-04-06T05:49:55;92673.75;;;0.95;69.96
64402;BME280;50724;42.376;23.768;2023-04-06T05:52:55;92669.00;;;0.80;70.40
64402;BME280;50724;42.376;23.768;2023-04-06T05:55:56;92668.94;;;1.02;69.99
64402;BME280;50724;42.376;23.768;2023-04-06T05:58:56;92670.31;;;1.17;69.37
64402;BME280;50724;42.376;23.768;2023-04-06T06:01:57;92670.22;;;1.07;69.58
64402;BME280;50724;42.376;23.768;2023-04-06T06:04:57;92660.28;;;1.03;69.87
64402;BME280;50724;42.376;23.768;2023-04-06T06:07:58;92661.69;;;1.07;69.20
64402;BME280;50724;42.376;23.768;2023-04-06T06:10:58;92665.09;;;1.07;69.70
64402;BME280;50724;42.376;23.768;2023-04-06T06:13:59;92658.78;;;0.89;70.07
64402;BME280;50724;42.376;23.768;2023-04-06T06:16:59;92660.53;;;1.00;69.37
64402;BME280;50724;42.376;23.768;2023-04-06T06:20:00;92655.88;;;0.94;69.66
64402;BME280;50724;42.376;23.768;2023-04-06T06:23:00;92658.78;;;1.00;69.58
64402;BME280;50724;42.376;23.768;2023-04-06T06:26:01;92658.00;;;1.20;69.27
64402;BME280;50724;42.376;23.768;2023-04-06T06:29:01;92655.84;;;1.36;68.39
64402;BME280;50724;42.376;23.768;2023-04-06T06:32:02;92658.63;;;1.45;69.14
64402;BME280;50724;42.376;23.768;2023-04-06T06:35:02;92658.88;;;1.42;67.54
64402;BME280;50724;42.376;23.768;2023-04-06T06:38:03;92658.09;;;1.30;68.98
64402;BME280;50724;42.376;23.768;2023-04-06T06:41:03;92656.81;;;1.24;69.22
64402;BME280;50724;42.376;23.768;2023-04-06T06:44:04;92656.69;;;1.58;68.46
64402;BME280;50724;42.376;23.768;2023-04-06T06:47:05;92658.63;;;1.45;68.10
64402;BME280;50724;42.376;23.768;2023-04-06T06:50:06;92672.34;;;1.34;68.50
64402;BME280;50724;42.376;23.768;2023-04-06T06:53:07;92668.72;;;1.68;68.37
64402;BME280;50724;42.376;23.768;2023-04-06T06:56:07;92660.66;;;2.03;66.96
64402;BME280;50724;42.376;23.768;2023-04-06T06:59:08;92670.13;;;2.23;65.81
64402;BME280;50724;42.376;23.768;2023-04-06T07:02:08;92662.72;;;2.30;64.90
64402;BME280;50724;42.376;23.768;2023-04-06T07:05:09;92661.41;;;2.45;65.51
64402;BME280;50724;42.376;23.768;2023-04-06T07:08:09;92657.50;;;2.50;64.99
64402;BME280;50724;42.376;23.768;2023-04-06T07:11:10;92663.31;;;2.43;64.51
64402;BME280;50724;42.376;23.768;2023-04-06T07:14:11;92663.63;;;2.59;64.07
64402;BME280;50724;42.376;23.768;2023-04-06T07:17:12;92658.91;;;2.64;65.40
64402;BME280;50724;42.376;23.768;2023-04-06T07:20:13;92660.75;;;2.92;65.40
64402;BME280;50724;42.376;23.768;2023-04-06T07:23:13;92650.34;;;2.63;63.37
64402;BME280;50724;42.376;23.768;2023-04-06T07:26:14;92660.25;;;2.58;64.03
64402;BME280;50724;42.376;23.768;2023-04-06T07:29:14;92639.66;;;2.77;64.80
64402;BME280;50724;42.376;23.768;2023-04-06T07:32:15;92649.53;;;2.63;64.85
64402;BME280;50724;42.376;23.768;2023-04-06T07:35:15;92633.28;;;2.91;64.01
64402;BME280;50724;42.376;23.768;2023-04-06T07:38:16;92639.28;;;2.92;65.37
64402;BME280;50724;42.376;23.768;2023-04-06T07:41:17;92638.00;;;3.16;64.22
64402;BME280;50724;42.376;23.768;2023-04-06T07:44:17;92624.50;;;3.22;63.59
64402;BME280;50724;42.376;23.768;2023-04-06T07:47:18;92644.50;;;3.11;63.91
64402;BME280;50724;42.376;23.768;2023-04-06T07:50:18;92639.22;;;3.41;63.44
64402;BME280;50724;42.376;23.768;2023-04-06T07:53:19;92655.94;;;3.27;65.43
64402;BME280;50724;42.376;23.768;2023-04-06T07:56:19;92654.56;;;3.14;63.41
64402;BME280;50724;42.376;23.768;2023-04-06T07:59:21;92650.50;;;3.49;64.40
64402;BME280;50724;42.376;23.768;2023-04-06T08:02:21;92643.22;;;2.96;64.64
64402;BME280;50724;42.376;23.768;2023-04-06T08:05:22;92648.53;;;2.94;64.46
64402;BME280;50724;42.376;23.768;2023-04-06T08:08:22;92655.06;;;2.58;65.28
64402;BME280;50724;42.376;23.768;2023-04-06T08:11:23;92659.16;;;2.61;65.72
64402;BME280;50724;42.376;23.768;2023-04-06T08:14:23;92647.78;;;2.73;65.30
64402;BME280;50724;42.376;23.768;2023-04-06T08:17:24;92647.25;;;3.19;65.77
64402;BME280;50724;42.376;23.768;2023-04-06T08:20:25;92644.81;;;3.46;63.14
64402;BME280;50724;42.376;23.768;2023-04-06T08:27:57;92643.44;;;3.61;63.07
64402;BME280;50724;42.376;23.768;2023-04-06T08:35:57;92649.13;;;4.03;63.71
64402;BME280;50724;42.376;23.768;2023-04-06T08:38:58;92635.66;;;3.80;63.30
64402;BME280;50724;42.376;23.768;2023-04-06T08:42:01;92630.66;;;3.69;62.22
64402;BME280;50724;42.376;23.768;2023-04-06T08:45:03;92640.84;;;3.71;62.63
64402;BME280;50724;42.376;23.768;2023-04-06T08:48:04;92637.47;;;3.51;62.64
64402;BME280;50724;42.376;23.768;2023-04-06T08:51:06;92625.06;;;3.35;63.06
64402;BME280;50724;42.376;23.768;2023-04-06T08:54:08;92630.50;;;3.71;63.07
64402;BME280;50724;42.376;23.768;2023-04-06T08:57:08;92623.53;;;4.00;61.06
64402;BME280;50724;42.376;23.768;2023-04-06T09:00:10;92624.81;;;4.33;60.72
64402;BME280;50724;42.376;23.768;2023-04-06T09:03:12;92619.38;;;4.26;60.58
64402;BME280;50724;42.376;23.768;2023-04-06T09:06:13;92622.13;;;4.15;60.91
64402;BME280;50724;42.376;23.768;2023-04-06T09:09:14;92620.97;;;4.37;59.57
64402;BME280;50724;42.376;23.768;2023-04-06T09:12:25;92619.84;;;4.49;58.88
64402;BME280;50724;42.376;23.768;2023-04-06T09:15:26;92619.25;;;4.92;58.49
64402;BME280;50724;42.376;23.768;2023-04-06T09:18:31;92615.78;;;5.01;59.48
64402;BME280;50724;42.376;23.768;2023-04-06T09:21:32;92631.84;;;5.04;57.58
64402;BME280;50724;42.376;23.768;2023-04-06T09:24:41;92615.56;;;4.94;56.12
64402;BME280;50724;42.376;23.768;2023-04-06T09:27:41;92611.56;;;4.72;57.73
64402;BME280;50724;42.376;23.768;2023-04-06T09:30:49;92620.94;;;5.45;57.15
64402;BME280;50724;42.376;23.768;2023-04-06T09:33:50;92617.44;;;5.19;57.22
64402;BME280;50724;42.376;23.768;2023-04-06T09:36:52;92615.31;;;5.50;56.92
64402;BME280;50724;42.376;23.768;2023-04-06T09:40:02;92621.31;;;5.50;55.64
64402;BME280;50724;42.376;23.768;2023-04-06T09:43:03;92610.09;;;5.32;56.52
64402;BME280;50724;42.376;23.768;2023-04-06T09:46:07;92614.63;;;6.01;55.29
64402;BME280;50724;42.376;23.768;2023-04-06T09:49:08;92622.03;;;6.39;54.64
64402;BME280;50724;42.376;23.768;2023-04-06T09:52:18;92605.44;;;5.53;54.34
64402;BME280;50724;42.376;23.768;2023-04-06T09:55:26;92610.09;;;5.32;54.85
64402;BME280;50724;42.376;23.768;2023-04-06T09:58:34;92618.03;;;5.31;54.30
64402;BME280;50724;42.376;23.768;2023-04-06T10:01:36;92615.13;;;5.16;55.66
64402;BME280;50724;42.376;23.768;2023-04-06T10:07:51;92605.38;;;4.56;56.10
64402;BME280;50724;42.376;23.768;2023-04-06T10:10:55;92612.41;;;4.91;55.39
64402;BME280;50724;42.376;23.768;2023-04-06T10:13:56;92606.34;;;4.82;56.15
64402;BME280;50724;42.376;23.768;2023-04-06T10:16:57;92595.50;;;5.14;54.17
64402;BME280;50724;42.376;23.768;2023-04-06T10:23:29;92606.81;;;4.95;54.61
64402;BME280;50724;42.376;23.768;2023-04-06T10:26:31;92611.41;;;5.46;55.33
64402;BME280;50724;42.376;23.768;2023-04-06T10:29:45;92607.00;;;5.29;54.68
64402;BME280;50724;42.376;23.768;2023-04-06T10:32:47;92617.00;;;5.24;54.58
64402;BME280;50724;42.376;23.768;2023-04-06T10:35:47;92607.50;;;5.15;52.89
64402;BME280;50724;42.376;23.768;2023-04-06T10:38:57;92607.91;;;5.20;54.97
64402;BME280;50724;42.376;23.768;2023-04-06T10:42:06;92609.38;;;5.40;53.26
64402;BME280;50724;42.376;23.768;2023-04-06T10:45:18;92595.31;;;5.25;54.45
64402;BME280;50724;42.376;23.768;2023-04-06T10:48:19;92589.16;;;5.43;54.98
64402;BME280;50724;42.376;23.768;2023-04-06T10:51:24;92588.59;;;6.10;55.65
64402;BME280;50724;42.376;23.768;2023-04-06T10:54:27;92582.47;;;6.19;53.56
64402;BME280;50724;42.376;23.768;2023-04-06T10:57:29;92589.28;;;5.77;53.35
64402;BME280;50724;42.376;23.768;2023-04-06T11:00:31;92592.75;;;6.29;53.05
64402;BME280;50724;42.376;23.768;2023-04-06T11:03:31;92592.75;;;6.29;51.15
64402;BME280;50724;42.376;23.768;2023-04-06T11:06:32;92570.56;;;6.09;53.21
64402;BME280;50724;42.376;23.768;2023-04-06T11:09:33;92585.22;;;5.92;54.96
64402;BME280;50724;42.376;23.768;2023-04-06T11:12:36;92577.63;;;5.55;54.05
64402;BME280;50724;42.376;23.768;2023-04-06T11:15:37;92578.94;;;5.42;54.43
64402;BME280;50724;42.376;23.768;2023-04-06T11:18:37;92573.56;;;4.91;56.69
64402;BME280;50724;42.376;23.768;2023-04-06T11:24:43;92593.75;;;5.32;55.93
64402;BME280;50724;42.376;23.768;2023-04-06T11:27:45;92585.44;;;5.11;56.98
64402;BME280;50724;42.376;23.768;2023-04-06T11:30:46;92583.28;;;4.61;57.15
64402;BME280;50724;42.376;23.768;2023-04-06T11:33:55;92576.97;;;4.91;57.44
64402;BME280;50724;42.376;23.768;2023-04-06T11:36:59;92578.19;;;4.69;58.27
64402;BME280;50724;42.376;23.768;2023-04-06T11:40:00;92589.16;;;4.27;60.84
64402;BME280;50724;42.376;23.768;2023-04-06T11:43:00;92579.44;;;4.65;60.34
64402;BME280;50724;42.376;23.768;2023-04-06T11:46:04;92576.34;;;5.60;56.98
64402;BME280;50724;42.376;23.768;2023-04-06T11:49:16;92568.16;;;5.72;53.05
64402;BME280;50724;42.376;23.768;2023-04-06T11:52:22;92581.00;;;6.17;54.34
64402;BME280;50724;42.376;23.768;2023-04-06T11:55:23;92571.47;;;5.82;54.22
64402;BME280;50724;42.376;23.768;2023-04-06T11:58:24;92578.03;;;6.12;53.90
64402;BME280;50724;42.376;23.768;2023-04-06T12:01:25;92575.75;;;6.09;54.53
64402;BME280;50724;42.376;23.768;2023-04-06T12:04:26;92564.09;;;5.87;52.93
64402;BME280;50724;42.376;23.768;2023-04-06T12:07:28;92566.88;;;5.50;54.45
64402;BME280;50724;42.376;23.768;2023-04-06T12:10:29;92563.00;;;5.37;53.44
64402;BME280;50724;42.376;23.768;2023-04-06T12:13:30;92562.72;;;5.57;54.00
64402;BME280;50724;42.376;23.768;2023-04-06T12:16:31;92568.81;;;4.86;53.83
64402;BME280;50724;42.376;23.768;2023-04-06T12:19:31;92565.31;;;5.22;54.57
64402;BME280;50724;42.376;23.768;2023-04-06T12:22:32;92571.66;;;5.10;55.12
64402;BME280;50724;42.376;23.768;2023-04-06T12:25:32;92579.97;;;5.31;54.92
64402;BME280;50724;42.376;23.768;2023-04-06T12:28:33;92551.94;;;4.82;56.27
64402;BME280;50724;42.376;23.768;2023-04-06T12:31:36;92561.44;;;5.26;57.51
64402;BME280;50724;42.376;23.768;2023-04-06T12:34:38;92564.75;;;6.15;53.31
64402;BME280;50724;42.376;23.768;2023-04-06T12:37:48;92563.28;;;5.69;53.64
64402;BME280;50724;42.376;23.768;2023-04-06T12:40:48;92564.50;;;6.26;53.30
64402;BME280;50724;42.376;23.768;2023-04-06T12:43:49;92557.84;;;5.80;54.39
64402;BME280;50724;42.376;23.768;2023-04-06T12:46:50;92559.19;;;6.02;52.27
64402;BME280;50724;42.376;23.768;2023-04-06T12:49:51;92542.50;;;6.12;50.91
64402;BME280;50724;42.376;23.768;2023-04-06T12:52:51;92548.09;;;6.59;52.04
64402;BME280;50724;42.376;23.768;2023-04-06T12:55:55;92540.00;;;7.12;51.37
64402;BME280;50724;42.376;23.768;2023-04-06T12:58:56;92561.78;;;6.69;50.83
64402;BME280;50724;42.376;23.768;2023-04-06T13:01:57;92542.75;;;6.27;51.98
64402;BME280;50724;42.376;23.768;2023-04-06T13:04:57;92546.16;;;6.53;52.74
64402;BME280;50724;42.376;23.768;2023-04-06T13:07:58;92546.59;;;5.72;54.01
64402;BME280;50724;42.376;23.768;2023-04-06T13:10:58;92544.53;;;6.27;53.42
64402;BME280;50724;42.376;23.768;2023-04-06T13:13:59;92544.31;;;5.69;53.13
64402;BME280;50724;42.376;23.768;2023-04-06T13:16:59;92547.69;;;6.12;52.87
64402;BME280;50724;42.376;23.768;2023-04-06T13:20:00;92545.44;;;6.43;51.49
64402;BME280;50724;42.376;23.768;2023-04-06T13:23:00;92535.28;;;7.08;50.09
64402;BME280;50724;42.376;23.768;2023-04-06T13:26:06;92514.00;;;7.36;48.37
64402;BME280;50724;42.376;23.768;2023-04-06T13:29:07;92530.28;;;7.30;47.22
64402;BME280;50724;42.376;23.768;2023-04-06T13:32:07;92536.88;;;6.51;50.25
64402;BME280;50724;42.376;23.768;2023-04-06T13:35:09;92519.31;;;6.86;51.97
64402;BME280;50724;42.376;23.768;2023-04-06T13:38:11;92519.75;;;6.32;49.92
64402;BME280;50724;42.376;23.768;2023-04-06T13:41:22;92526.59;;;6.41;51.46
64402;BME280;50724;42.376;23.768;2023-04-06T13:44:22;92519.31;;;6.86;48.12
64402;BME280;50724;42.376;23.768;2023-04-06T13:47:23;92503.34;;;6.32;48.30
64402;BME280;50724;42.376;23.768;2023-04-06T13:50:26;92517.66;;;6.10;51.39
64402;BME280;50724;42.376;23.768;2023-04-06T13:53:27;92530.72;;;6.18;48.80
64402;BME280;50724;42.376;23.768;2023-04-06T13:56:27;92514.88;;;6.03;49.81
64402;BME280;50724;42.376;23.768;2023-04-06T13:59:32;92525.22;;;6.21;50.03
64402;BME280;50724;42.376;23.768;2023-04-06T14:02:33;92518.28;;;6.30;49.33
64402;BME280;50724;42.376;23.768;2023-04-06T14:05:33;92529.88;;;6.09;49.33
64402;BME280;50724;42.376;23.768;2023-04-06T14:08:33;92529.03;;;6.09;49.03
64402;BME280;50724;42.376;23.768;2023-04-06T14:11:34;92536.66;;;6.10;49.72
64402;BME280;50724;42.376;23.768;2023-04-06T14:14:35;92516.16;;;5.99;50.84
64402;BME280;50724;42.376;23.768;2023-04-06T14:17:35;92528.50;;;5.80;50.91
64402;BME280;50724;42.376;23.768;2023-04-06T14:20:36;92533.09;;;5.68;50.99
64402;BME280;50724;42.376;23.768;2023-04-06T14:23:36;92533.44;;;5.47;51.06
64402;BME280;50724;42.376;23.768;2023-04-06T14:26:38;92532.53;;;5.56;51.03
64402;BME280;50724;42.376;23.768;2023-04-06T14:29:38;92530.63;;;5.23;51.81
64402;BME280;50724;42.376;23.768;2023-04-06T14:32:39;92536.31;;;5.44;51.44
64402;BME280;50724;42.376;23.768;2023-04-06T14:35:42;92529.97;;;5.39;52.13
64402;BME280;50724;42.376;23.768;2023-04-06T14:38:42;92531.81;;;5.46;51.57
64402;BME280;50724;42.376;23.768;2023-04-06T14:41:44;92524.50;;;5.24;52.17
64402;BME280;50724;42.376;23.768;2023-04-06T14:44:45;92525.59;;;5.22;51.73
64402;BME280;50724;42.376;23.768;2023-04-06T14:47:46;92528.53;;;5.44;52.00
64402;BME280;50724;42.376;23.768;2023-04-06T14:50:56;92525.25;;;5.34;51.96
64402;BME280;50724;42.376;23.768;2023-04-06T14:53:57;92519.97;;;5.26;52.46
64402;BME280;50724;42.376;23.768;2023-04-06T14:56:57;92523.59;;;5.33;51.95
64402;BME280;50724;42.376;23.768;2023-04-06T14:59:57;92527.38;;;5.39;52.56
64402;BME280;50724;42.376;23.768;2023-04-06T15:02:58;92533.31;;;5.31;51.89
64402;BME280;50724;42.376;23.768;2023-04-06T15:05:58;92540.31;;;5.56;52.55
64402;BME280;50724;42.376;23.768;2023-04-06T15:08:59;92534.41;;;5.11;52.74
64402;BME280;50724;42.376;23.768;2023-04-06T15:11:59;92534.06;;;5.41;53.15
64402;BME280;50724;42.376;23.768;2023-04-06T15:15:00;92532.13;;;5.43;52.83
64402;BME280;50724;42.376;23.768;2023-04-06T15:18:01;92538.00;;;5.53;52.76
64402;BME280;50724;42.376;23.768;2023-04-06T15:21:02;92532.13;;;5.26;52.82
64402;BME280;50724;42.376;23.768;2023-04-06T15:24:03;92547.22;;;4.95;53.81
64402;BME280;50724;42.376;23.768;2023-04-06T15:27:06;92540.47;;;4.57;54.76
64402;BME280;50724;42.376;23.768;2023-04-06T15:30:06;92537.63;;;4.60;54.65
64402;BME280;50724;42.376;23.768;2023-04-06T15:33:08;92543.00;;;4.49;54.60
64402;BME280;50724;42.376;23.768;2023-04-06T15:36:23;92545.19;;;4.44;54.67
64402;BME280;50724;42.376;23.768;2023-04-06T15:39:24;92553.50;;;4.11;55.99
64402;BME280;50724;42.376;23.768;2023-04-06T15:42:25;92552.47;;;3.94;55.41
64402;BME280;50724;42.376;23.768;2023-04-06T15:45:25;92552.66;;;3.74;55.30
64402;BME280;50724;42.376;23.768;2023-04-06T15:48:26;92558.00;;;3.53;56.26
64402;BME280;50724;42.376;23.768;2023-04-06T15:51:30;92568.88;;;3.57;56.05
64402;BME280;50724;42.376;23.768;2023-04-06T15:54:40;92572.00;;;3.60;55.67
64402;BME280;50724;42.376;23.768;2023-04-06T15:57:41;92570.38;;;3.59;56.24
64402;BME280;50724;42.376;23.768;2023-04-06T16:00:41;92563.84;;;3.45;56.89
64402;BME280;50724;42.376;23.768;2023-04-06T16:03:42;92575.84;;;3.27;57.00
64402;BME280;50724;42.376;23.768;2023-04-06T16:06:43;92566.16;;;3.01;58.02
64402;BME280;50724;42.376;23.768;2023-04-06T16:09:43;92576.47;;;2.91;58.59
64402;BME280;50724;42.376;23.768;2023-04-06T16:12:44;92591.00;;;2.73;59.84
64402;BME280;50724;42.376;23.768;2023-04-06T16:15:48;92589.59;;;2.50;61.63